Aviation Digital Data Service (ADDS)

Output produced by TAFs form (0950 UTC 22 September 2017)
found at http://www.aviationweather.gov/adds/tafs/
 
METAR text: ROMY 220900Z 03007KT 350V060 9999 SCT018 SCT/// 30/26 Q1010
Conditions at: ROMY (MIYAKOJIMA ISLAN, JP) observed 0900 UTC 22 September 2017
Temperature: 30.0°C (86°F)
Dewpoint: 26.0°C (79°F) [RH = 79%]
Pressure (altimeter): 29.82 inches Hg (1010.0 mb)
Winds: from the NNE (30 degrees) at 8 MPH (7 knots; 3.6 m/s)
Visibility: 6 or more miles (10+ km)
Ceiling: at least 12,000 feet AGL
Clouds: scattered clouds at 1800 feet AGL
Weather: no significant weather observed at this time